sensor_id;sensor_type;location;lat;lon;timestamp;P1;durP1;ratioP1;P2;durP2;ratioP2
71503;SDS011;59323;50.874;7.028;2022-10-30T00:02:11;13.67;;;4.30;;
71503;SDS011;59323;50.874;7.028;2022-10-30T00:04:39;15.90;;;4.53;;
71503;SDS011;59323;50.874;7.028;2022-10-30T00:07:35;16.30;;;4.67;;
71503;SDS011;59323;50.874;7.028;2022-10-30T00:10:01;17.10;;;5.10;;
71503;SDS011;59323;50.874;7.028;2022-10-30T00:12:26;14.77;;;5.13;;
71503;SDS011;59323;50.874;7.028;2022-10-30T00:14:57;11.55;;;4.40;;
71503;SDS011;59323;50.874;7.028;2022-10-30T00:17:30;12.23;;;4.67;;
71503;SDS011;59323;50.874;7.028;2022-10-30T00:20:08;10.32;;;4.20;;
71503;SDS011;59323;50.874;7.028;2022-10-30T00:22:40;11.60;;;4.10;;
71503;SDS011;59323;50.874;7.028;2022-10-30T00:25:07;13.35;;;4.35;;
71503;SDS011;59323;50.874;7.028;2022-10-30T00:27:40;15.93;;;5.18;;
71503;SDS011;59323;50.874;7.028;2022-10-30T00:30:06;16.90;;;4.23;;
71503;SDS011;59323;50.874;7.028;2022-10-30T00:32:32;10.57;;;4.43;;
71503;SDS011;59323;50.874;7.028;2022-10-30T00:34:57;12.50;;;4.70;;
71503;SDS011;59323;50.874;7.028;2022-10-30T00:37:23;10.40;;;4.27;;
71503;SDS011;59323;50.874;7.028;2022-10-30T00:39:48;14.93;;;4.27;;
71503;SDS011;59323;50.874;7.028;2022-10-30T00:42:17;13.17;;;5.33;;
71503;SDS011;59323;50.874;7.028;2022-10-30T00:44:49;13.82;;;4.57;;
71503;SDS011;59323;50.874;7.028;2022-10-30T00:47:38;15.67;;;4.60;;
71503;SDS011;59323;50.874;7.028;2022-10-30T00:50:25;11.48;;;4.40;;
71503;SDS011;59323;50.874;7.028;2022-10-30T00:53:08;13.98;;;4.88;;
71503;SDS011;59323;50.874;7.028;2022-10-30T00:55:43;12.98;;;4.95;;
71503;SDS011;59323;50.874;7.028;2022-10-30T00:58:21;12.15;;;4.53;;
71503;SDS011;59323;50.874;7.028;2022-10-30T01:00:53;16.40;;;4.97;;
71503;SDS011;59323;50.874;7.028;2022-10-30T01:03:22;15.70;;;5.50;;
71503;SDS011;59323;50.874;7.028;2022-10-30T01:09:07;12.93;;;4.40;;
71503;SDS011;59323;50.874;7.028;2022-10-30T01:11:39;11.63;;;4.63;;
71503;SDS011;59323;50.874;7.028;2022-10-30T01:14:05;14.20;;;5.00;;
71503;SDS011;59323;50.874;7.028;2022-10-30T01:17:05;10.27;;;4.25;;
71503;SDS011;59323;50.874;7.028;2022-10-30T01:28:49;11.77;;;4.20;;
71503;SDS011;59323;50.874;7.028;2022-10-30T01:41:19;11.57;;;4.07;;
71503;SDS011;59323;50.874;7.028;2022-10-30T01:43:45;11.80;;;4.38;;
71503;SDS011;59323;50.874;7.028;2022-10-30T01:46:29;12.63;;;4.30;;
71503;SDS011;59323;50.874;7.028;2022-10-30T02:00:18;9.17;;;4.27;;
71503;SDS011;59323;50.874;7.028;2022-10-30T02:02:44;11.88;;;4.13;;
71503;SDS011;59323;50.874;7.028;2022-10-30T02:05:13;17.23;;;4.45;;
71503;SDS011;59323;50.874;7.028;2022-10-30T02:07:48;12.20;;;4.25;;
71503;SDS011;59323;50.874;7.028;2022-10-30T02:10:13;15.13;;;4.85;;
71503;SDS011;59323;50.874;7.028;2022-10-30T02:12:45;18.70;;;5.30;;
71503;SDS011;59323;50.874;7.028;2022-10-30T02:15:11;19.63;;;5.03;;
71503;SDS011;59323;50.874;7.028;2022-10-30T02:17:40;15.67;;;4.23;;
71503;SDS011;59323;50.874;7.028;2022-10-30T02:22:43;10.93;;;3.72;;
71503;SDS011;59323;50.874;7.028;2022-10-30T02:25:10;12.20;;;4.57;;
71503;SDS011;59323;50.874;7.028;2022-10-30T02:27:42;10.87;;;4.13;;
71503;SDS011;59323;50.874;7.028;2022-10-30T02:30:07;10.85;;;4.05;;
71503;SDS011;59323;50.874;7.028;2022-10-30T02:32:39;15.45;;;4.95;;
71503;SDS011;59323;50.874;7.028;2022-10-30T02:35:04;16.00;;;5.80;;
71503;SDS011;59323;50.874;7.028;2022-10-30T02:37:30;11.63;;;4.50;;
71503;SDS011;59323;50.874;7.028;2022-10-30T02:40:04;16.70;;;5.67;;
71503;SDS011;59323;50.874;7.028;2022-10-30T02:42:32;11.63;;;4.43;;
71503;SDS011;59323;50.874;7.028;2022-10-30T02:44:58;18.58;;;4.80;;
71503;SDS011;59323;50.874;7.028;2022-10-30T02:47:27;12.70;;;4.63;;
71503;SDS011;59323;50.874;7.028;2022-10-30T02:49:52;13.25;;;4.50;;
71503;SDS011;59323;50.874;7.028;2022-10-30T02:52:21;14.05;;;4.50;;
71503;SDS011;59323;50.874;7.028;2022-10-30T02:54:46;14.43;;;4.80;;
71503;SDS011;59323;50.874;7.028;2022-10-30T02:57:12;9.90;;;5.00;;
71503;SDS011;59323;50.874;7.028;2022-10-30T02:59:37;14.93;;;5.57;;
71503;SDS011;59323;50.874;7.028;2022-10-30T03:02:02;13.57;;;4.83;;
71503;SDS011;59323;50.874;7.028;2022-10-30T03:04:28;12.43;;;4.63;;
71503;SDS011;59323;50.874;7.028;2022-10-30T03:06:53;13.43;;;5.03;;
71503;SDS011;59323;50.874;7.028;2022-10-30T03:09:19;13.73;;;5.13;;
71503;SDS011;59323;50.874;7.028;2022-10-30T03:11:44;11.60;;;4.95;;
71503;SDS011;59323;50.874;7.028;2022-10-30T03:14:10;15.93;;;5.33;;
71503;SDS011;59323;50.874;7.028;2022-10-30T03:16:35;15.13;;;5.03;;
71503;SDS011;59323;50.874;7.028;2022-10-30T03:19:01;10.48;;;4.93;;
71503;SDS011;59323;50.874;7.028;2022-10-30T03:21:28;16.45;;;5.18;;
71503;SDS011;59323;50.874;7.028;2022-10-30T03:23:53;12.70;;;5.40;;
71503;SDS011;59323;50.874;7.028;2022-10-30T03:26:24;13.38;;;4.95;;
71503;SDS011;59323;50.874;7.028;2022-10-30T03:28:50;14.63;;;4.87;;
71503;SDS011;59323;50.874;7.028;2022-10-30T03:31:16;12.00;;;4.28;;
71503;SDS011;59323;50.874;7.028;2022-10-30T03:33:43;13.60;;;4.70;;
71503;SDS011;59323;50.874;7.028;2022-10-30T03:36:09;13.57;;;4.97;;
71503;SDS011;59323;50.874;7.028;2022-10-30T03:38:36;19.67;;;5.63;;
71503;SDS011;59323;50.874;7.028;2022-10-30T03:41:02;14.32;;;4.60;;
71503;SDS011;59323;50.874;7.028;2022-10-30T03:43:28;16.48;;;4.82;;
71503;SDS011;59323;50.874;7.028;2022-10-30T03:45:54;13.00;;;4.60;;
71503;SDS011;59323;50.874;7.028;2022-10-30T03:48:21;15.93;;;5.18;;
71503;SDS011;59323;50.874;7.028;2022-10-30T03:50:50;15.17;;;4.87;;
71503;SDS011;59323;50.874;7.028;2022-10-30T03:53:17;14.57;;;4.43;;
71503;SDS011;59323;50.874;7.028;2022-10-30T03:55:42;15.30;;;4.60;;
71503;SDS011;59323;50.874;7.028;2022-10-30T03:58:07;16.23;;;5.20;;
71503;SDS011;59323;50.874;7.028;2022-10-30T04:00:36;14.00;;;4.87;;
71503;SDS011;59323;50.874;7.028;2022-10-30T04:03:04;17.60;;;5.53;;
71503;SDS011;59323;50.874;7.028;2022-10-30T04:05:32;12.43;;;4.77;;
71503;SDS011;59323;50.874;7.028;2022-10-30T04:07:59;13.32;;;4.60;;
71503;SDS011;59323;50.874;7.028;2022-10-30T04:10:26;11.18;;;4.70;;
71503;SDS011;59323;50.874;7.028;2022-10-30T04:12:58;14.02;;;4.82;;
71503;SDS011;59323;50.874;7.028;2022-10-30T04:15:25;14.63;;;4.53;;
71503;SDS011;59323;50.874;7.028;2022-10-30T04:17:55;10.93;;;4.53;;
71503;SDS011;59323;50.874;7.028;2022-10-30T04:20:24;9.60;;;4.32;;
71503;SDS011;59323;50.874;7.028;2022-10-30T04:22:55;13.15;;;4.25;;
71503;SDS011;59323;50.874;7.028;2022-10-30T04:25:25;11.07;;;4.33;;
71503;SDS011;59323;50.874;7.028;2022-10-30T04:27:51;10.13;;;4.07;;
71503;SDS011;59323;50.874;7.028;2022-10-30T04:30:17;10.70;;;4.32;;
71503;SDS011;59323;50.874;7.028;2022-10-30T04:32:48;13.23;;;4.20;;
71503;SDS011;59323;50.874;7.028;2022-10-30T04:35:15;15.55;;;4.82;;
71503;SDS011;59323;50.874;7.028;2022-10-30T04:37:41;12.63;;;4.50;;
71503;SDS011;59323;50.874;7.028;2022-10-30T04:40:07;12.27;;;4.03;;
71503;SDS011;59323;50.874;7.028;2022-10-30T04:42:33;13.50;;;4.50;;
71503;SDS011;59323;50.874;7.028;2022-10-30T04:44:59;11.73;;;4.47;;
71503;SDS011;59323;50.874;7.028;2022-10-30T04:47:27;18.20;;;5.15;;
71503;SDS011;59323;50.874;7.028;2022-10-30T04:49:53;13.83;;;4.73;;
71503;SDS011;59323;50.874;7.028;2022-10-30T04:52:18;8.93;;;3.65;;
71503;SDS011;59323;50.874;7.028;2022-10-30T04:54:43;13.23;;;4.33;;
71503;SDS011;59323;50.874;7.028;2022-10-30T04:57:09;12.17;;;4.10;;
71503;SDS011;59323;50.874;7.028;2022-10-30T04:59:34;13.17;;;5.23;;
71503;SDS011;59323;50.874;7.028;2022-10-30T05:02:00;13.30;;;4.63;;
71503;SDS011;59323;50.874;7.028;2022-10-30T05:04:25;10.25;;;4.60;;
71503;SDS011;59323;50.874;7.028;2022-10-30T05:06:50;11.80;;;4.30;;
71503;SDS011;59323;50.874;7.028;2022-10-30T05:09:16;14.83;;;4.90;;
71503;SDS011;59323;50.874;7.028;2022-10-30T05:11:41;11.53;;;4.30;;
71503;SDS011;59323;50.874;7.028;2022-10-30T05:14:07;13.13;;;4.63;;
71503;SDS011;59323;50.874;7.028;2022-10-30T05:16:32;13.32;;;4.82;;
71503;SDS011;59323;50.874;7.028;2022-10-30T05:18:57;11.57;;;4.60;;
71503;SDS011;59323;50.874;7.028;2022-10-30T05:21:23;11.67;;;4.40;;
71503;SDS011;59323;50.874;7.028;2022-10-30T05:23:48;15.10;;;4.57;;
71503;SDS011;59323;50.874;7.028;2022-10-30T05:26:14;18.95;;;5.63;;
71503;SDS011;59323;50.874;7.028;2022-10-30T05:28:39;12.20;;;4.53;;
71503;SDS011;59323;50.874;7.028;2022-10-30T05:31:06;12.10;;;4.53;;
71503;SDS011;59323;50.874;7.028;2022-10-30T05:33:32;11.13;;;4.57;;
71503;SDS011;59323;50.874;7.028;2022-10-30T05:35:57;16.70;;;5.13;;
71503;SDS011;59323;50.874;7.028;2022-10-30T05:38:23;16.08;;;4.80;;
71503;SDS011;59323;50.874;7.028;2022-10-30T05:40:48;18.20;;;4.13;;
71503;SDS011;59323;50.874;7.028;2022-10-30T05:43:14;11.48;;;4.03;;
71503;SDS011;59323;50.874;7.028;2022-10-30T05:45:39;13.70;;;5.30;;
71503;SDS011;59323;50.874;7.028;2022-10-30T05:48:05;14.77;;;5.07;;
71503;SDS011;59323;50.874;7.028;2022-10-30T05:50:31;16.13;;;5.32;;
71503;SDS011;59323;50.874;7.028;2022-10-30T05:52:57;15.13;;;5.32;;
71503;SDS011;59323;50.874;7.028;2022-10-30T05:55:28;12.80;;;4.83;;
71503;SDS011;59323;50.874;7.028;2022-10-30T06:00:44;10.98;;;4.57;;
71503;SDS011;59323;50.874;7.028;2022-10-30T06:03:10;11.53;;;4.20;;
71503;SDS011;59323;50.874;7.028;2022-10-30T06:05:36;11.23;;;4.55;;
71503;SDS011;59323;50.874;7.028;2022-10-30T06:08:03;12.30;;;4.27;;
71503;SDS011;59323;50.874;7.028;2022-10-30T06:10:30;17.25;;;4.65;;
71503;SDS011;59323;50.874;7.028;2022-10-30T06:12:56;12.55;;;4.38;;
71503;SDS011;59323;50.874;7.028;2022-10-30T06:15:24;11.50;;;4.07;;
71503;SDS011;59323;50.874;7.028;2022-10-30T06:17:50;14.98;;;4.75;;
71503;SDS011;59323;50.874;7.028;2022-10-30T06:20:16;12.03;;;4.80;;
71503;SDS011;59323;50.874;7.028;2022-10-30T06:22:53;12.93;;;5.27;;
71503;SDS011;59323;50.874;7.028;2022-10-30T06:25:19;14.35;;;5.07;;
71503;SDS011;59323;50.874;7.028;2022-10-30T06:27:45;10.40;;;4.20;;
71503;SDS011;59323;50.874;7.028;2022-10-30T06:30:13;10.90;;;5.00;;
71503;SDS011;59323;50.874;7.028;2022-10-30T06:32:48;13.57;;;4.90;;
71503;SDS011;59323;50.874;7.028;2022-10-30T06:35:16;9.95;;;4.50;;
71503;SDS011;59323;50.874;7.028;2022-10-30T06:37:50;11.83;;;4.90;;
71503;SDS011;59323;50.874;7.028;2022-10-30T06:40:20;15.63;;;4.70;;
71503;SDS011;59323;50.874;7.028;2022-10-30T06:42:50;10.85;;;4.43;;
71503;SDS011;59323;50.874;7.028;2022-10-30T06:45:20;10.93;;;4.40;;
71503;SDS011;59323;50.874;7.028;2022-10-30T06:47:49;13.75;;;4.45;;
71503;SDS011;59323;50.874;7.028;2022-10-30T06:50:17;15.20;;;4.93;;
71503;SDS011;59323;50.874;7.028;2022-10-30T06:52:44;11.43;;;4.88;;
71503;SDS011;59323;50.874;7.028;2022-10-30T06:55:10;12.60;;;5.55;;
71503;SDS011;59323;50.874;7.028;2022-10-30T06:57:41;13.18;;;5.25;;
71503;SDS011;59323;50.874;7.028;2022-10-30T07:00:07;14.20;;;4.70;;
71503;SDS011;59323;50.874;7.028;2022-10-30T07:02:33;11.75;;;4.60;;
71503;SDS011;59323;50.874;7.028;2022-10-30T07:04:59;13.70;;;4.20;;
71503;SDS011;59323;50.874;7.028;2022-10-30T07:07:26;15.87;;;4.90;;
71503;SDS011;59323;50.874;7.028;2022-10-30T07:09:52;11.23;;;4.18;;
71503;SDS011;59323;50.874;7.028;2022-10-30T07:12:23;12.18;;;4.93;;
71503;SDS011;59323;50.874;7.028;2022-10-30T07:14:54;11.93;;;4.88;;
71503;SDS011;59323;50.874;7.028;2022-10-30T07:17:19;14.43;;;5.40;;
71503;SDS011;59323;50.874;7.028;2022-10-30T07:19:45;14.18;;;4.85;;
71503;SDS011;59323;50.874;7.028;2022-10-30T07:22:10;12.57;;;5.30;;
71503;SDS011;59323;50.874;7.028;2022-10-30T07:24:36;16.23;;;5.57;;
71503;SDS011;59323;50.874;7.028;2022-10-30T07:27:01;16.53;;;5.73;;
71503;SDS011;59323;50.874;7.028;2022-10-30T07:29:27;12.10;;;4.50;;
71503;SDS011;59323;50.874;7.028;2022-10-30T07:31:55;15.18;;;5.05;;
71503;SDS011;59323;50.874;7.028;2022-10-30T07:37:52;13.80;;;5.35;;
71503;SDS011;59323;50.874;7.028;2022-10-30T07:40:17;17.97;;;5.30;;
71503;SDS011;59323;50.874;7.028;2022-10-30T07:42:43;10.87;;;4.57;;
71503;SDS011;59323;50.874;7.028;2022-10-30T07:45:14;15.82;;;5.05;;
71503;SDS011;59323;50.874;7.028;2022-10-30T07:47:48;13.65;;;5.10;;
71503;SDS011;59323;50.874;7.028;2022-10-30T07:50:17;16.07;;;5.50;;
71503;SDS011;59323;50.874;7.028;2022-10-30T07:52:46;13.48;;;5.28;;
71503;SDS011;59323;50.874;7.028;2022-10-30T07:55:17;14.13;;;5.18;;
71503;SDS011;59323;50.874;7.028;2022-10-30T08:01:14;12.85;;;5.07;;
71503;SDS011;59323;50.874;7.028;2022-10-30T08:03:50;13.57;;;5.23;;
71503;SDS011;59323;50.874;7.028;2022-10-30T08:06:47;15.77;;;4.93;;
71503;SDS011;59323;50.874;7.028;2022-10-30T08:09:12;11.38;;;4.35;;
71503;SDS011;59323;50.874;7.028;2022-10-30T08:24:21;11.87;;;4.60;;
71503;SDS011;59323;50.874;7.028;2022-10-30T08:26:46;11.25;;;4.13;;
71503;SDS011;59323;50.874;7.028;2022-10-30T08:29:11;17.87;;;5.00;;
71503;SDS011;59323;50.874;7.028;2022-10-30T08:31:37;12.80;;;4.73;;
71503;SDS011;59323;50.874;7.028;2022-10-30T08:34:02;13.27;;;4.93;;
71503;SDS011;59323;50.874;7.028;2022-10-30T08:36:29;13.95;;;4.43;;
71503;SDS011;59323;50.874;7.028;2022-10-30T08:38:54;11.97;;;4.17;;
71503;SDS011;59323;50.874;7.028;2022-10-30T08:41:20;16.77;;;5.35;;
71503;SDS011;59323;50.874;7.028;2022-10-30T08:43:45;17.23;;;4.70;;
71503;SDS011;59323;50.874;7.028;2022-10-30T08:46:10;11.13;;;4.90;;
71503;SDS011;59323;50.874;7.028;2022-10-30T08:48:36;15.57;;;4.50;;
71503;SDS011;59323;50.874;7.028;2022-10-30T08:51:01;17.77;;;4.70;;
71503;SDS011;59323;50.874;7.028;2022-10-30T08:53:27;14.13;;;4.07;;
71503;SDS011;59323;50.874;7.028;2022-10-30T08:55:53;11.98;;;4.75;;
71503;SDS011;59323;50.874;7.028;2022-10-30T08:58:18;17.37;;;5.47;;
71503;SDS011;59323;50.874;7.028;2022-10-30T09:00:43;15.23;;;5.20;;
71503;SDS011;59323;50.874;7.028;2022-10-30T09:03:10;8.90;;;4.38;;
71503;SDS011;59323;50.874;7.028;2022-10-30T09:05:43;15.83;;;4.90;;
71503;SDS011;59323;50.874;7.028;2022-10-30T09:08:15;10.32;;;4.40;;
71503;SDS011;59323;50.874;7.028;2022-10-30T09:10:40;15.75;;;4.78;;
71503;SDS011;59323;50.874;7.028;2022-10-30T09:13:06;11.23;;;4.30;;
71503;SDS011;59323;50.874;7.028;2022-10-30T09:15:33;18.67;;;5.22;;
71503;SDS011;59323;50.874;7.028;2022-10-30T09:17:59;13.47;;;5.37;;
71503;SDS011;59323;50.874;7.028;2022-10-30T09:20:44;13.27;;;4.47;;
71503;SDS011;59323;50.874;7.028;2022-10-30T09:27:36;9.57;;;4.45;;
71503;SDS011;59323;50.874;7.028;2022-10-30T09:30:04;13.30;;;4.45;;
71503;SDS011;59323;50.874;7.028;2022-10-30T09:32:40;11.63;;;4.50;;
71503;SDS011;59323;50.874;7.028;2022-10-30T09:35:08;17.02;;;4.82;;
71503;SDS011;59323;50.874;7.028;2022-10-30T09:37:40;15.55;;;4.80;;
71503;SDS011;59323;50.874;7.028;2022-10-30T09:40:19;13.30;;;4.45;;
71503;SDS011;59323;50.874;7.028;2022-10-30T09:43:28;12.53;;;4.73;;
71503;SDS011;59323;50.874;7.028;2022-10-30T09:52:27;14.30;;;4.97;;
71503;SDS011;59323;50.874;7.028;2022-10-30T09:55:32;14.55;;;4.53;;
71503;SDS011;59323;50.874;7.028;2022-10-30T10:00:46;12.93;;;5.13;;
71503;SDS011;59323;50.874;7.028;2022-10-30T10:06:39;12.45;;;4.32;;
71503;SDS011;59323;50.874;7.028;2022-10-30T10:09:19;9.23;;;4.13;;
71503;SDS011;59323;50.874;7.028;2022-10-30T10:11:52;14.00;;;4.27;;
71503;SDS011;59323;50.874;7.028;2022-10-30T10:14:45;16.88;;;4.53;;
71503;SDS011;59323;50.874;7.028;2022-10-30T10:17:13;10.65;;;4.13;;
71503;SDS011;59323;50.874;7.028;2022-10-30T10:19:57;15.43;;;4.20;;
71503;SDS011;59323;50.874;7.028;2022-10-30T10:25:57;14.40;;;4.30;;
71503;SDS011;59323;50.874;7.028;2022-10-30T10:31:57;13.68;;;4.38;;
71503;SDS011;59323;50.874;7.028;2022-10-30T10:37:48;12.10;;;3.92;;
71503;SDS011;59323;50.874;7.028;2022-10-30T10:52:35;13.73;;;4.60;;
71503;SDS011;59323;50.874;7.028;2022-10-30T10:55:15;12.23;;;3.87;;
71503;SDS011;59323;50.874;7.028;2022-10-30T10:57:46;11.80;;;4.45;;
71503;SDS011;59323;50.874;7.028;2022-10-30T11:00:14;15.20;;;4.43;;
71503;SDS011;59323;50.874;7.028;2022-10-30T11:02:45;12.43;;;3.72;;
71503;SDS011;59323;50.874;7.028;2022-10-30T11:15:03;13.00;;;4.40;;
71503;SDS011;59323;50.874;7.028;2022-10-30T11:18:15;12.93;;;4.75;;
71503;SDS011;59323;50.874;7.028;2022-10-30T11:20:43;12.70;;;4.20;;
71503;SDS011;59323;50.874;7.028;2022-10-30T11:23:30;10.83;;;4.23;;
71503;SDS011;59323;50.874;7.028;2022-10-30T11:26:23;12.60;;;3.88;;
71503;SDS011;59323;50.874;7.028;2022-10-30T11:32:00;14.00;;;3.97;;
71503;SDS011;59323;50.874;7.028;2022-10-30T11:34:34;12.90;;;4.00;;
71503;SDS011;59323;50.874;7.028;2022-10-30T11:37:03;11.47;;;3.73;;
71503;SDS011;59323;50.874;7.028;2022-10-30T11:40:27;12.07;;;3.15;;
71503;SDS011;59323;50.874;7.028;2022-10-30T11:47:57;11.38;;;3.85;;
71503;SDS011;59323;50.874;7.028;2022-10-30T11:50:28;9.43;;;3.57;;
71503;SDS011;59323;50.874;7.028;2022-10-30T11:52:56;12.90;;;3.63;;
71503;SDS011;59323;50.874;7.028;2022-10-30T11:55:38;15.40;;;3.38;;
71503;SDS011;59323;50.874;7.028;2022-10-30T11:58:06;14.02;;;3.53;;
71503;SDS011;59323;50.874;7.028;2022-10-30T12:00:44;11.88;;;4.15;;
71503;SDS011;59323;50.874;7.028;2022-10-30T12:03:28;10.77;;;3.60;;
71503;SDS011;59323;50.874;7.028;2022-10-30T12:06:08;15.10;;;3.42;;
71503;SDS011;59323;50.874;7.028;2022-10-30T12:08:35;9.65;;;3.22;;
71503;SDS011;59323;50.874;7.028;2022-10-30T12:11:06;14.27;;;3.10;;
71503;SDS011;59323;50.874;7.028;2022-10-30T12:13:38;11.30;;;3.85;;
71503;SDS011;59323;50.874;7.028;2022-10-30T12:21:22;12.32;;;3.67;;
71503;SDS011;59323;50.874;7.028;2022-10-30T12:23:59;10.52;;;3.65;;
71503;SDS011;59323;50.874;7.028;2022-10-30T12:26:36;14.60;;;4.13;;
71503;SDS011;59323;50.874;7.028;2022-10-30T12:29:06;11.70;;;3.17;;
71503;SDS011;59323;50.874;7.028;2022-10-30T12:32:16;9.63;;;3.57;;
71503;SDS011;59323;50.874;7.028;2022-10-30T12:34:49;11.20;;;3.35;;
71503;SDS011;59323;50.874;7.028;2022-10-30T12:37:28;12.88;;;2.90;;
71503;SDS011;59323;50.874;7.028;2022-10-30T12:40:10;15.35;;;4.30;;
71503;SDS011;59323;50.874;7.028;2022-10-30T12:52:44;11.38;;;3.60;;
71503;SDS011;59323;50.874;7.028;2022-10-30T13:00:35;7.23;;;2.80;;
71503;SDS011;59323;50.874;7.028;2022-10-30T13:06:29;13.25;;;3.15;;
71503;SDS011;59323;50.874;7.028;2022-10-30T13:12:13;12.25;;;3.22;;
71503;SDS011;59323;50.874;7.028;2022-10-30T13:15:24;9.20;;;3.00;;
71503;SDS011;59323;50.874;7.028;2022-10-30T13:17:54;16.80;;;3.13;;
71503;SDS011;59323;50.874;7.028;2022-10-30T13:20:22;14.20;;;3.15;;
71503;SDS011;59323;50.874;7.028;2022-10-30T13:23:02;11.90;;;3.42;;
71503;SDS011;59323;50.874;7.028;2022-10-30T13:28:51;10.43;;;3.10;;
71503;SDS011;59323;50.874;7.028;2022-10-30T13:31:41;8.15;;;2.85;;
71503;SDS011;59323;50.874;7.028;2022-10-30T13:34:46;9.30;;;2.80;;
71503;SDS011;59323;50.874;7.028;2022-10-30T13:51:42;9.38;;;3.20;;
71503;SDS011;59323;50.874;7.028;2022-10-30T14:00:24;10.90;;;3.42;;
71503;SDS011;59323;50.874;7.028;2022-10-30T14:15:24;9.07;;;3.35;;
71503;SDS011;59323;50.874;7.028;2022-10-30T14:21:28;13.13;;;2.97;;
71503;SDS011;59323;50.874;7.028;2022-10-30T14:24:10;11.70;;;3.42;;
71503;SDS011;59323;50.874;7.028;2022-10-30T14:30:12;9.77;;;3.90;;
71503;SDS011;59323;50.874;7.028;2022-10-30T14:32:50;11.30;;;3.40;;
71503;SDS011;59323;50.874;7.028;2022-10-30T14:38:41;9.13;;;3.63;;
71503;SDS011;59323;50.874;7.028;2022-10-30T14:44:29;9.25;;;3.08;;
71503;SDS011;59323;50.874;7.028;2022-10-30T14:53:19;9.23;;;3.28;;
71503;SDS011;59323;50.874;7.028;2022-10-30T14:55:52;12.70;;;3.47;;
71503;SDS011;59323;50.874;7.028;2022-10-30T14:58:36;12.30;;;3.22;;
71503;SDS011;59323;50.874;7.028;2022-10-30T15:08:54;14.43;;;3.60;;
71503;SDS011;59323;50.874;7.028;2022-10-30T15:14:20;13.13;;;3.17;;
71503;SDS011;59323;50.874;7.028;2022-10-30T15:16:48;8.50;;;3.10;;
71503;SDS011;59323;50.874;7.028;2022-10-30T15:19:15;10.10;;;3.90;;
71503;SDS011;59323;50.874;7.028;2022-10-30T15:21:42;10.18;;;3.50;;
71503;SDS011;59323;50.874;7.028;2022-10-30T15:24:22;10.23;;;3.07;;
71503;SDS011;59323;50.874;7.028;2022-10-30T15:26:52;8.10;;;2.72;;
71503;SDS011;59323;50.874;7.028;2022-10-30T15:29:26;7.70;;;2.95;;
71503;SDS011;59323;50.874;7.028;2022-10-30T15:55:28;9.93;;;3.60;;
71503;SDS011;59323;50.874;7.028;2022-10-30T15:57:57;8.20;;;2.70;;
71503;SDS011;59323;50.874;7.028;2022-10-30T16:00:36;10.07;;;3.35;;
71503;SDS011;59323;50.874;7.028;2022-10-30T16:03:03;10.30;;;3.25;;
71503;SDS011;59323;50.874;7.028;2022-10-30T16:05:31;13.57;;;3.38;;
71503;SDS011;59323;50.874;7.028;2022-10-30T16:07:58;8.13;;;3.07;;
71503;SDS011;59323;50.874;7.028;2022-10-30T16:10:27;10.10;;;3.95;;
71503;SDS011;59323;50.874;7.028;2022-10-30T16:12:58;9.90;;;3.85;;
71503;SDS011;59323;50.874;7.028;2022-10-30T16:15:27;7.20;;;3.10;;
71503;SDS011;59323;50.874;7.028;2022-10-30T16:18:06;13.90;;;4.07;;
71503;SDS011;59323;50.874;7.028;2022-10-30T16:20:40;10.52;;;4.07;;
71503;SDS011;59323;50.874;7.028;2022-10-30T16:23:07;11.68;;;3.72;;
71503;SDS011;59323;50.874;7.028;2022-10-30T16:25:32;10.37;;;3.50;;
71503;SDS011;59323;50.874;7.028;2022-10-30T16:28:01;9.68;;;3.65;;
71503;SDS011;59323;50.874;7.028;2022-10-30T16:30:28;10.00;;;3.35;;
71503;SDS011;59323;50.874;7.028;2022-10-30T16:32:56;10.30;;;3.93;;
71503;SDS011;59323;50.874;7.028;2022-10-30T16:35:22;12.27;;;3.58;;
71503;SDS011;59323;50.874;7.028;2022-10-30T16:37:49;11.25;;;3.78;;
71503;SDS011;59323;50.874;7.028;2022-10-30T16:40:16;8.20;;;3.10;;
71503;SDS011;59323;50.874;7.028;2022-10-30T16:42:59;9.68;;;3.42;;
71503;SDS011;59323;50.874;7.028;2022-10-30T16:48:17;9.32;;;3.97;;
71503;SDS011;59323;50.874;7.028;2022-10-30T16:50:44;9.90;;;4.53;;
71503;SDS011;59323;50.874;7.028;2022-10-30T16:53:17;10.50;;;3.88;;
71503;SDS011;59323;50.874;7.028;2022-10-30T16:55:46;11.80;;;3.90;;
71503;SDS011;59323;50.874;7.028;2022-10-30T16:58:12;12.40;;;4.15;;
71503;SDS011;59323;50.874;7.028;2022-10-30T17:00:39;8.88;;;3.30;;
71503;SDS011;59323;50.874;7.028;2022-10-30T17:03:07;10.50;;;3.72;;
71503;SDS011;59323;50.874;7.028;2022-10-30T17:05:35;9.17;;;3.23;;
71503;SDS011;59323;50.874;7.028;2022-10-30T17:08:02;10.48;;;3.60;;
71503;SDS011;59323;50.874;7.028;2022-10-30T17:18:47;9.30;;;2.77;;
71503;SDS011;59323;50.874;7.028;2022-10-30T17:21:16;12.10;;;3.47;;
71503;SDS011;59323;50.874;7.028;2022-10-30T17:23:47;11.35;;;3.67;;
71503;SDS011;59323;50.874;7.028;2022-10-30T17:26:18;9.18;;;3.53;;
71503;SDS011;59323;50.874;7.028;2022-10-30T17:28:44;8.70;;;3.60;;
71503;SDS011;59323;50.874;7.028;2022-10-30T17:33:42;12.55;;;2.92;;
71503;SDS011;59323;50.874;7.028;2022-10-30T17:36:08;9.05;;;3.55;;
71503;SDS011;59323;50.874;7.028;2022-10-30T17:38:34;8.27;;;3.23;;
71503;SDS011;59323;50.874;7.028;2022-10-30T17:40:59;7.93;;;3.20;;
71503;SDS011;59323;50.874;7.028;2022-10-30T17:43:27;9.40;;;3.67;;
71503;SDS011;59323;50.874;7.028;2022-10-30T17:45:55;15.00;;;5.47;;
71503;SDS011;59323;50.874;7.028;2022-10-30T17:48:22;9.15;;;3.50;;
71503;SDS011;59323;50.874;7.028;2022-10-30T17:50:50;9.17;;;3.73;;
71503;SDS011;59323;50.874;7.028;2022-10-30T17:53:16;10.38;;;3.55;;
71503;SDS011;59323;50.874;7.028;2022-10-30T17:55:46;7.57;;;3.23;;
71503;SDS011;59323;50.874;7.028;2022-10-30T17:58:17;8.05;;;3.53;;
71503;SDS011;59323;50.874;7.028;2022-10-30T18:00:43;8.37;;;3.50;;
71503;SDS011;59323;50.874;7.028;2022-10-30T18:03:08;9.70;;;3.60;;
71503;SDS011;59323;50.874;7.028;2022-10-30T18:05:34;9.40;;;3.00;;
71503;SDS011;59323;50.874;7.028;2022-10-30T18:08:00;8.00;;;3.10;;
71503;SDS011;59323;50.874;7.028;2022-10-30T18:10:26;10.55;;;3.90;;
71503;SDS011;59323;50.874;7.028;2022-10-30T18:12:52;8.85;;;3.20;;
71503;SDS011;59323;50.874;7.028;2022-10-30T18:18:22;8.68;;;3.38;;
71503;SDS011;59323;50.874;7.028;2022-10-30T18:20:47;11.93;;;3.93;;
71503;SDS011;59323;50.874;7.028;2022-10-30T18:23:17;9.23;;;3.47;;
71503;SDS011;59323;50.874;7.028;2022-10-30T18:25:44;10.68;;;3.50;;
71503;SDS011;59323;50.874;7.028;2022-10-30T18:28:09;11.87;;;3.20;;
71503;SDS011;59323;50.874;7.028;2022-10-30T18:30:35;9.97;;;3.67;;
71503;SDS011;59323;50.874;7.028;2022-10-30T18:33:00;9.60;;;3.05;;
71503;SDS011;59323;50.874;7.028;2022-10-30T18:35:28;8.23;;;3.37;;
71503;SDS011;59323;50.874;7.028;2022-10-30T18:37:57;7.43;;;3.05;;
71503;SDS011;59323;50.874;7.028;2022-10-30T18:40:22;9.23;;;4.00;;
71503;SDS011;59323;50.874;7.028;2022-10-30T18:42:48;9.77;;;3.53;;
71503;SDS011;59323;50.874;7.028;2022-10-30T18:45:21;9.90;;;3.70;;
71503;SDS011;59323;50.874;7.028;2022-10-30T18:47:51;9.97;;;3.93;;
71503;SDS011;59323;50.874;7.028;2022-10-30T18:50:18;13.07;;;4.85;;
71503;SDS011;59323;50.874;7.028;2022-10-30T18:52:45;12.82;;;5.40;;
71503;SDS011;59323;50.874;7.028;2022-10-30T18:58:03;18.48;;;6.20;;
71503;SDS011;59323;50.874;7.028;2022-10-30T19:00:30;18.40;;;5.73;;
71503;SDS011;59323;50.874;7.028;2022-10-30T19:02:57;14.35;;;5.45;;
71503;SDS011;59323;50.874;7.028;2022-10-30T19:08:06;14.35;;;5.50;;
71503;SDS011;59323;50.874;7.028;2022-10-30T19:10:33;12.90;;;4.97;;